sensor_id;sensor_type;location;lat;lon;timestamp;P1;durP1;ratioP1;P2;durP2;ratioP2
9248;SDS011;4660;41.768;26.198;2022-09-03T00:00:44;42.88;;;31.40;;
9248;SDS011;4660;41.768;26.198;2022-09-03T00:06:29;38.35;;;29.75;;
9248;SDS011;4660;41.768;26.198;2022-09-03T00:11:29;37.80;;;28.73;;
9248;SDS011;4660;41.768;26.198;2022-09-03T00:16:56;32.55;;;26.58;;
9248;SDS011;4660;41.768;26.198;2022-09-03T00:20:06;35.15;;;26.23;;
9248;SDS011;4660;41.768;26.198;2022-09-03T00:22:43;32.53;;;24.95;;
9248;SDS011;4660;41.768;26.198;2022-09-03T00:25:14;33.42;;;23.90;;
9248;SDS011;4660;41.768;26.198;2022-09-03T00:27:44;26.95;;;21.63;;
9248;SDS011;4660;41.768;26.198;2022-09-03T00:30:15;24.85;;;20.60;;
9248;SDS011;4660;41.768;26.198;2022-09-03T00:32:43;27.77;;;20.90;;
9248;SDS011;4660;41.768;26.198;2022-09-03T00:35:16;25.05;;;18.65;;
9248;SDS011;4660;41.768;26.198;2022-09-03T00:37:50;20.63;;;18.27;;
9248;SDS011;4660;41.768;26.198;2022-09-03T01:06:49;33.10;;;28.88;;
9248;SDS011;4660;41.768;26.198;2022-09-03T01:09:26;33.03;;;26.02;;
9248;SDS011;4660;41.768;26.198;2022-09-03T01:12:08;28.52;;;24.67;;
9248;SDS011;4660;41.768;26.198;2022-09-03T01:26:14;25.17;;;21.98;;
9248;SDS011;4660;41.768;26.198;2022-09-03T01:31:31;23.52;;;21.02;;
9248;SDS011;4660;41.768;26.198;2022-09-03T01:34:12;25.60;;;23.00;;
9248;SDS011;4660;41.768;26.198;2022-09-03T01:37:18;23.15;;;20.70;;
9248;SDS011;4660;41.768;26.198;2022-09-03T01:42:52;23.30;;;20.70;;
9248;SDS011;4660;41.768;26.198;2022-09-03T01:45:42;22.90;;;20.63;;
9248;SDS011;4660;41.768;26.198;2022-09-03T01:48:30;24.75;;;22.35;;
9248;SDS011;4660;41.768;26.198;2022-09-03T01:51:19;22.30;;;19.92;;
9248;SDS011;4660;41.768;26.198;2022-09-03T02:00:09;20.55;;;17.90;;
9248;SDS011;4660;41.768;26.198;2022-09-03T02:02:34;19.60;;;17.60;;
9248;SDS011;4660;41.768;26.198;2022-09-03T02:07:33;20.35;;;18.38;;
9248;SDS011;4660;41.768;26.198;2022-09-03T02:10:20;19.67;;;17.67;;
9248;SDS011;4660;41.768;26.198;2022-09-03T02:12:52;20.08;;;18.13;;
9248;SDS011;4660;41.768;26.198;2022-09-03T02:15:22;20.20;;;18.25;;
9248;SDS011;4660;41.768;26.198;2022-09-03T02:17:49;18.17;;;16.42;;
9248;SDS011;4660;41.768;26.198;2022-09-03T02:20:19;22.02;;;17.55;;
9248;SDS011;4660;41.768;26.198;2022-09-03T02:22:47;18.35;;;16.65;;
9248;SDS011;4660;41.768;26.198;2022-09-03T02:25:14;20.15;;;17.00;;
9248;SDS011;4660;41.768;26.198;2022-09-03T02:27:41;18.17;;;16.48;;
9248;SDS011;4660;41.768;26.198;2022-09-03T02:30:08;18.52;;;16.35;;
9248;SDS011;4660;41.768;26.198;2022-09-03T02:32:34;17.48;;;15.88;;
9248;SDS011;4660;41.768;26.198;2022-09-03T02:35:00;21.33;;;17.08;;
9248;SDS011;4660;41.768;26.198;2022-09-03T02:37:26;17.73;;;16.10;;
9248;SDS011;4660;41.768;26.198;2022-09-03T02:39:51;17.25;;;15.32;;
9248;SDS011;4660;41.768;26.198;2022-09-03T02:42:17;18.10;;;16.10;;
9248;SDS011;4660;41.768;26.198;2022-09-03T02:44:45;20.05;;;17.38;;
9248;SDS011;4660;41.768;26.198;2022-09-03T02:47:17;19.17;;;17.13;;
9248;SDS011;4660;41.768;26.198;2022-09-03T02:49:48;19.50;;;17.50;;
9248;SDS011;4660;41.768;26.198;2022-09-03T02:52:13;19.38;;;17.38;;
9248;SDS011;4660;41.768;26.198;2022-09-03T02:54:39;19.73;;;17.73;;
9248;SDS011;4660;41.768;26.198;2022-09-03T02:57:09;24.65;;;18.45;;
9248;SDS011;4660;41.768;26.198;2022-09-03T02:59:37;20.45;;;18.48;;
9248;SDS011;4660;41.768;26.198;2022-09-03T03:02:04;24.27;;;18.83;;
9248;SDS011;4660;41.768;26.198;2022-09-03T03:04:29;22.23;;;19.33;;
9248;SDS011;4660;41.768;26.198;2022-09-03T03:06:56;21.90;;;19.67;;
9248;SDS011;4660;41.768;26.198;2022-09-03T03:09:22;24.08;;;20.95;;
9248;SDS011;4660;41.768;26.198;2022-09-03T03:11:48;22.05;;;19.75;;
9248;SDS011;4660;41.768;26.198;2022-09-03T03:14:18;23.42;;;21.17;;
9248;SDS011;4660;41.768;26.198;2022-09-03T03:16:43;26.60;;;22.40;;
9248;SDS011;4660;41.768;26.198;2022-09-03T03:19:09;24.27;;;21.88;;
9248;SDS011;4660;41.768;26.198;2022-09-03T03:21:34;24.77;;;22.17;;
9248;SDS011;4660;41.768;26.198;2022-09-03T03:24:00;24.60;;;21.83;;
9248;SDS011;4660;41.768;26.198;2022-09-03T03:26:27;25.88;;;23.17;;
9248;SDS011;4660;41.768;26.198;2022-09-03T03:28:57;25.80;;;22.08;;
9248;SDS011;4660;41.768;26.198;2022-09-03T03:31:24;24.30;;;21.80;;
9248;SDS011;4660;41.768;26.198;2022-09-03T03:36:21;24.75;;;22.20;;
9248;SDS011;4660;41.768;26.198;2022-09-03T03:38:48;25.30;;;22.73;;
9248;SDS011;4660;41.768;26.198;2022-09-03T03:41:23;24.77;;;22.27;;
9248;SDS011;4660;41.768;26.198;2022-09-03T03:43:56;24.65;;;22.15;;
9248;SDS011;4660;41.768;26.198;2022-09-03T03:46:23;24.85;;;22.13;;
9248;SDS011;4660;41.768;26.198;2022-09-03T03:48:50;24.73;;;22.20;;
9248;SDS011;4660;41.768;26.198;2022-09-03T03:51:17;25.05;;;22.30;;
9248;SDS011;4660;41.768;26.198;2022-09-03T03:53:43;25.30;;;22.65;;
9248;SDS011;4660;41.768;26.198;2022-09-03T03:56:11;24.23;;;21.75;;
9248;SDS011;4660;41.768;26.198;2022-09-03T03:58:39;25.10;;;22.05;;
9248;SDS011;4660;41.768;26.198;2022-09-03T04:03:44;22.67;;;20.25;;
9248;SDS011;4660;41.768;26.198;2022-09-03T04:06:11;21.27;;;19.05;;
9248;SDS011;4660;41.768;26.198;2022-09-03T04:08:39;20.90;;;17.90;;
9248;SDS011;4660;41.768;26.198;2022-09-03T04:11:07;21.02;;;18.85;;
9248;SDS011;4660;41.768;26.198;2022-09-03T04:13:35;21.50;;;19.23;;
9248;SDS011;4660;41.768;26.198;2022-09-03T04:16:06;21.98;;;19.50;;
9248;SDS011;4660;41.768;26.198;2022-09-03T04:18:37;21.83;;;19.60;;
9248;SDS011;4660;41.768;26.198;2022-09-03T04:23:31;21.70;;;19.55;;
9248;SDS011;4660;41.768;26.198;2022-09-03T04:25:57;23.48;;;20.95;;
9248;SDS011;4660;41.768;26.198;2022-09-03T04:28:24;23.63;;;21.23;;
9248;SDS011;4660;41.768;26.198;2022-09-03T04:30:50;22.70;;;20.50;;
9248;SDS011;4660;41.768;26.198;2022-09-03T04:33:15;23.20;;;20.75;;
9248;SDS011;4660;41.768;26.198;2022-09-03T04:35:41;23.17;;;19.73;;
9248;SDS011;4660;41.768;26.198;2022-09-03T04:38:07;21.08;;;18.98;;
9248;SDS011;4660;41.768;26.198;2022-09-03T04:40:33;21.00;;;19.10;;
9248;SDS011;4660;41.768;26.198;2022-09-03T04:42:59;21.23;;;19.33;;
9248;SDS011;4660;41.768;26.198;2022-09-03T04:45:25;21.98;;;19.98;;
9248;SDS011;4660;41.768;26.198;2022-09-03T04:47:59;23.50;;;20.23;;
9248;SDS011;4660;41.768;26.198;2022-09-03T04:50:26;20.90;;;18.95;;
9248;SDS011;4660;41.768;26.198;2022-09-03T04:52:53;20.50;;;18.45;;
9248;SDS011;4660;41.768;26.198;2022-09-03T04:55:21;20.45;;;18.30;;
9248;SDS011;4660;41.768;26.198;2022-09-03T04:57:47;19.50;;;17.60;;
9248;SDS011;4660;41.768;26.198;2022-09-03T05:00:13;18.23;;;16.48;;
9248;SDS011;4660;41.768;26.198;2022-09-03T05:02:42;17.25;;;15.20;;
9248;SDS011;4660;41.768;26.198;2022-09-03T05:05:11;16.52;;;14.80;;
9248;SDS011;4660;41.768;26.198;2022-09-03T05:07:37;15.98;;;14.40;;
9248;SDS011;4660;41.768;26.198;2022-09-03T05:10:07;15.35;;;13.93;;
9248;SDS011;4660;41.768;26.198;2022-09-03T05:12:37;15.80;;;13.93;;
9248;SDS011;4660;41.768;26.198;2022-09-03T05:15:03;15.27;;;13.77;;
9248;SDS011;4660;41.768;26.198;2022-09-03T05:17:30;14.40;;;12.93;;
9248;SDS011;4660;41.768;26.198;2022-09-03T05:19:55;15.27;;;13.77;;
9248;SDS011;4660;41.768;26.198;2022-09-03T05:22:21;14.75;;;13.30;;
9248;SDS011;4660;41.768;26.198;2022-09-03T05:24:47;16.42;;;13.13;;
9248;SDS011;4660;41.768;26.198;2022-09-03T05:27:13;14.93;;;13.45;;
9248;SDS011;4660;41.768;26.198;2022-09-03T05:29:41;13.38;;;11.98;;
9248;SDS011;4660;41.768;26.198;2022-09-03T05:32:08;15.43;;;12.77;;
9248;SDS011;4660;41.768;26.198;2022-09-03T05:34:34;16.85;;;15.13;;
9248;SDS011;4660;41.768;26.198;2022-09-03T05:37:00;17.60;;;14.63;;
9248;SDS011;4660;41.768;26.198;2022-09-03T05:39:26;14.98;;;13.68;;
9248;SDS011;4660;41.768;26.198;2022-09-03T05:41:51;15.23;;;13.73;;
9248;SDS011;4660;41.768;26.198;2022-09-03T05:44:17;15.05;;;13.65;;
9248;SDS011;4660;41.768;26.198;2022-09-03T05:46:47;14.82;;;13.27;;
9248;SDS011;4660;41.768;26.198;2022-09-03T05:49:13;15.93;;;14.38;;
9248;SDS011;4660;41.768;26.198;2022-09-03T05:51:39;15.95;;;14.43;;
9248;SDS011;4660;41.768;26.198;2022-09-03T05:54:05;15.07;;;13.50;;
9248;SDS011;4660;41.768;26.198;2022-09-03T05:56:32;15.02;;;13.52;;
9248;SDS011;4660;41.768;26.198;2022-09-03T05:59:01;14.90;;;13.43;;
9248;SDS011;4660;41.768;26.198;2022-09-03T06:01:31;18.77;;;13.45;;
9248;SDS011;4660;41.768;26.198;2022-09-03T06:06:28;15.55;;;14.15;;
9248;SDS011;4660;41.768;26.198;2022-09-03T06:08:56;15.23;;;13.63;;
9248;SDS011;4660;41.768;26.198;2022-09-03T06:11:24;14.93;;;13.48;;
9248;SDS011;4660;41.768;26.198;2022-09-03T06:13:55;15.85;;;14.20;;
9248;SDS011;4660;41.768;26.198;2022-09-03T06:16:21;16.00;;;14.63;;
9248;SDS011;4660;41.768;26.198;2022-09-03T06:18:48;16.38;;;13.82;;
9248;SDS011;4660;41.768;26.198;2022-09-03T06:21:15;16.08;;;14.45;;
9248;SDS011;4660;41.768;26.198;2022-09-03T06:23:41;17.63;;;13.88;;
9248;SDS011;4660;41.768;26.198;2022-09-03T06:26:11;15.88;;;14.20;;
9248;SDS011;4660;41.768;26.198;2022-09-03T06:28:39;16.23;;;14.73;;
9248;SDS011;4660;41.768;26.198;2022-09-03T06:31:11;15.93;;;14.35;;
9248;SDS011;4660;41.768;26.198;2022-09-03T06:33:39;16.80;;;14.38;;
9248;SDS011;4660;41.768;26.198;2022-09-03T06:36:07;15.65;;;13.20;;
9248;SDS011;4660;41.768;26.198;2022-09-03T06:38:36;15.98;;;12.95;;
9248;SDS011;4660;41.768;26.198;2022-09-03T06:41:25;14.77;;;13.20;;
9248;SDS011;4660;41.768;26.198;2022-09-03T06:43:55;14.40;;;13.00;;
9248;SDS011;4660;41.768;26.198;2022-09-03T06:46:27;15.18;;;13.77;;
9248;SDS011;4660;41.768;26.198;2022-09-03T06:48:55;16.05;;;14.43;;
9248;SDS011;4660;41.768;26.198;2022-09-03T06:51:22;16.48;;;14.95;;
9248;SDS011;4660;41.768;26.198;2022-09-03T06:53:50;15.57;;;13.98;;
9248;SDS011;4660;41.768;26.198;2022-09-03T06:56:19;17.38;;;15.10;;
9248;SDS011;4660;41.768;26.198;2022-09-03T06:58:58;15.60;;;14.07;;
9248;SDS011;4660;41.768;26.198;2022-09-03T07:01:26;15.25;;;13.93;;
9248;SDS011;4660;41.768;26.198;2022-09-03T07:03:55;15.77;;;14.38;;
9248;SDS011;4660;41.768;26.198;2022-09-03T07:06:26;13.88;;;12.60;;
9248;SDS011;4660;41.768;26.198;2022-09-03T07:08:54;12.73;;;11.43;;
9248;SDS011;4660;41.768;26.198;2022-09-03T07:11:24;15.98;;;12.35;;
9248;SDS011;4660;41.768;26.198;2022-09-03T07:13:53;12.68;;;11.57;;
9248;SDS011;4660;41.768;26.198;2022-09-03T07:16:21;12.20;;;11.13;;
9248;SDS011;4660;41.768;26.198;2022-09-03T07:18:49;13.40;;;12.00;;
9248;SDS011;4660;41.768;26.198;2022-09-03T07:21:25;10.75;;;9.75;;
9248;SDS011;4660;41.768;26.198;2022-09-03T07:23:53;13.05;;;11.68;;
9248;SDS011;4660;41.768;26.198;2022-09-03T07:26:21;12.70;;;11.57;;
9248;SDS011;4660;41.768;26.198;2022-09-03T07:28:52;12.98;;;11.77;;
9248;SDS011;4660;41.768;26.198;2022-09-03T07:33:52;12.95;;;11.10;;
9248;SDS011;4660;41.768;26.198;2022-09-03T07:36:39;12.30;;;10.95;;
9248;SDS011;4660;41.768;26.198;2022-09-03T07:39:11;12.85;;;11.70;;
9248;SDS011;4660;41.768;26.198;2022-09-03T07:41:40;13.10;;;11.90;;
9248;SDS011;4660;41.768;26.198;2022-09-03T07:44:13;12.95;;;11.63;;
9248;SDS011;4660;41.768;26.198;2022-09-03T07:46:43;13.23;;;11.75;;
9248;SDS011;4660;41.768;26.198;2022-09-03T07:49:10;13.82;;;12.35;;
9248;SDS011;4660;41.768;26.198;2022-09-03T07:51:36;14.30;;;12.63;;
9248;SDS011;4660;41.768;26.198;2022-09-03T07:54:03;14.85;;;13.30;;
9248;SDS011;4660;41.768;26.198;2022-09-03T07:56:32;13.73;;;11.25;;
9248;SDS011;4660;41.768;26.198;2022-09-03T07:58:59;14.82;;;12.57;;
9248;SDS011;4660;41.768;26.198;2022-09-03T08:01:25;16.83;;;13.85;;
9248;SDS011;4660;41.768;26.198;2022-09-03T08:03:59;15.02;;;12.50;;
9248;SDS011;4660;41.768;26.198;2022-09-03T08:06:26;14.77;;;12.98;;
9248;SDS011;4660;41.768;26.198;2022-09-03T08:08:55;14.77;;;13.15;;
9248;SDS011;4660;41.768;26.198;2022-09-03T08:11:23;15.13;;;13.82;;
9248;SDS011;4660;41.768;26.198;2022-09-03T08:13:53;17.95;;;14.82;;
9248;SDS011;4660;41.768;26.198;2022-09-03T08:16:25;14.63;;;13.25;;
9248;SDS011;4660;41.768;26.198;2022-09-03T08:18:53;15.18;;;13.73;;
9248;SDS011;4660;41.768;26.198;2022-09-03T08:21:18;16.13;;;14.02;;
9248;SDS011;4660;41.768;26.198;2022-09-03T08:23:45;15.57;;;14.02;;
9248;SDS011;4660;41.768;26.198;2022-09-03T08:26:13;16.05;;;14.55;;
9248;SDS011;4660;41.768;26.198;2022-09-03T08:28:39;15.85;;;14.45;;
9248;SDS011;4660;41.768;26.198;2022-09-03T08:31:08;17.75;;;14.77;;
9248;SDS011;4660;41.768;26.198;2022-09-03T08:33:39;15.80;;;14.23;;
9248;SDS011;4660;41.768;26.198;2022-09-03T08:36:08;15.13;;;13.73;;
9248;SDS011;4660;41.768;26.198;2022-09-03T08:38:37;16.80;;;15.30;;
9248;SDS011;4660;41.768;26.198;2022-09-03T08:44:29;16.05;;;14.55;;
9248;SDS011;4660;41.768;26.198;2022-09-03T08:55:26;17.15;;;15.38;;
9248;SDS011;4660;41.768;26.198;2022-09-03T08:58:04;16.85;;;15.10;;
9248;SDS011;4660;41.768;26.198;2022-09-03T09:00:47;18.38;;;15.60;;
9248;SDS011;4660;41.768;26.198;2022-09-03T09:03:33;20.05;;;16.58;;
9248;SDS011;4660;41.768;26.198;2022-09-03T09:06:39;15.68;;;14.18;;
9248;SDS011;4660;41.768;26.198;2022-09-03T09:20:20;12.77;;;10.75;;
9248;SDS011;4660;41.768;26.198;2022-09-03T09:23:04;11.75;;;10.75;;
9248;SDS011;4660;41.768;26.198;2022-09-03T09:25:32;12.20;;;11.07;;
9248;SDS011;4660;41.768;26.198;2022-09-03T09:30:47;11.95;;;10.38;;
9248;SDS011;4660;41.768;26.198;2022-09-03T09:33:21;10.25;;;9.43;;
9248;SDS011;4660;41.768;26.198;2022-09-03T09:35:50;10.63;;;9.63;;
9248;SDS011;4660;41.768;26.198;2022-09-03T09:38:26;11.18;;;10.07;;
9248;SDS011;4660;41.768;26.198;2022-09-03T09:40:53;12.13;;;9.57;;
9248;SDS011;4660;41.768;26.198;2022-09-03T09:43:21;10.20;;;9.27;;
9248;SDS011;4660;41.768;26.198;2022-09-03T09:45:48;15.43;;;9.18;;
9248;SDS011;4660;41.768;26.198;2022-09-03T09:48:25;10.13;;;9.13;;
9248;SDS011;4660;41.768;26.198;2022-09-03T09:51:05;9.77;;;8.88;;
9248;SDS011;4660;41.768;26.198;2022-09-03T09:53:33;10.00;;;9.07;;
9248;SDS011;4660;41.768;26.198;2022-09-03T09:55:59;11.85;;;9.20;;
9248;SDS011;4660;41.768;26.198;2022-09-03T09:58:27;9.50;;;8.60;;
9248;SDS011;4660;41.768;26.198;2022-09-03T10:01:17;9.65;;;8.75;;
9248;SDS011;4660;41.768;26.198;2022-09-03T10:03:54;13.02;;;8.73;;
9248;SDS011;4660;41.768;26.198;2022-09-03T10:06:39;10.80;;;7.70;;
9248;SDS011;4660;41.768;26.198;2022-09-03T10:09:25;9.35;;;8.35;;
9248;SDS011;4660;41.768;26.198;2022-09-03T10:15:54;9.02;;;8.18;;
9248;SDS011;4660;41.768;26.198;2022-09-03T10:18:48;11.27;;;8.88;;
9248;SDS011;4660;41.768;26.198;2022-09-03T10:21:27;9.80;;;8.88;;
9248;SDS011;4660;41.768;26.198;2022-09-03T10:26:53;9.98;;;8.68;;
9248;SDS011;4660;41.768;26.198;2022-09-03T10:29:20;9.45;;;8.25;;
9248;SDS011;4660;41.768;26.198;2022-09-03T10:37:36;8.65;;;7.85;;
9248;SDS011;4660;41.768;26.198;2022-09-03T10:43:12;8.55;;;7.20;;
9248;SDS011;4660;41.768;26.198;2022-09-03T10:45:59;8.48;;;7.47;;
9248;SDS011;4660;41.768;26.198;2022-09-03T10:51:34;7.57;;;6.60;;
9248;SDS011;4660;41.768;26.198;2022-09-03T10:54:20;8.63;;;6.93;;
9248;SDS011;4660;41.768;26.198;2022-09-03T11:02:17;9.85;;;7.40;;
9248;SDS011;4660;41.768;26.198;2022-09-03T11:05:11;7.97;;;7.28;;
9248;SDS011;4660;41.768;26.198;2022-09-03T11:07:52;10.45;;;6.90;;
9248;SDS011;4660;41.768;26.198;2022-09-03T11:10:32;9.57;;;6.22;;
9248;SDS011;4660;41.768;26.198;2022-09-03T11:16:01;8.93;;;6.63;;
9248;SDS011;4660;41.768;26.198;2022-09-03T11:21:07;7.28;;;6.43;;
9248;SDS011;4660;41.768;26.198;2022-09-03T11:23:39;6.97;;;6.20;;
9248;SDS011;4660;41.768;26.198;2022-09-03T11:26:10;6.32;;;5.70;;
9248;SDS011;4660;41.768;26.198;2022-09-03T11:28:56;6.45;;;5.82;;
9248;SDS011;4660;41.768;26.198;2022-09-03T11:36:50;6.70;;;6.07;;
9248;SDS011;4660;41.768;26.198;2022-09-03T11:42:00;11.07;;;6.90;;
9248;SDS011;4660;41.768;26.198;2022-09-03T11:44:38;7.50;;;6.88;;
9248;SDS011;4660;41.768;26.198;2022-09-03T11:47:37;7.75;;;7.03;;
9248;SDS011;4660;41.768;26.198;2022-09-03T11:50:07;7.45;;;6.88;;
9248;SDS011;4660;41.768;26.198;2022-09-03T11:52:45;8.95;;;6.75;;
9248;SDS011;4660;41.768;26.198;2022-09-03T11:55:26;8.00;;;6.18;;
9248;SDS011;4660;41.768;26.198;2022-09-03T11:58:18;7.45;;;5.78;;
9248;SDS011;4660;41.768;26.198;2022-09-03T12:00:52;7.78;;;6.70;;
9248;SDS011;4660;41.768;26.198;2022-09-03T12:03:24;6.95;;;6.30;;
9248;SDS011;4660;41.768;26.198;2022-09-03T12:06:03;6.82;;;6.13;;
9248;SDS011;4660;41.768;26.198;2022-09-03T12:17:55;6.68;;;6.07;;
9248;SDS011;4660;41.768;26.198;2022-09-03T12:20:42;6.40;;;5.78;;
9248;SDS011;4660;41.768;26.198;2022-09-03T12:23:09;8.35;;;7.35;;
9248;SDS011;4660;41.768;26.198;2022-09-03T12:25:41;6.93;;;6.22;;
9248;SDS011;4660;41.768;26.198;2022-09-03T12:28:28;5.85;;;5.28;;
9248;SDS011;4660;41.768;26.198;2022-09-03T12:31:04;5.85;;;5.35;;
9248;SDS011;4660;41.768;26.198;2022-09-03T12:33:59;7.47;;;6.78;;
9248;SDS011;4660;41.768;26.198;2022-09-03T12:36:51;7.10;;;6.50;;
9248;SDS011;4660;41.768;26.198;2022-09-03T12:39:24;7.80;;;7.18;;
9248;SDS011;4660;41.768;26.198;2022-09-03T12:44:27;6.63;;;5.95;;
9248;SDS011;4660;41.768;26.198;2022-09-03T12:47:15;9.88;;;7.18;;
9248;SDS011;4660;41.768;26.198;2022-09-03T12:49:46;8.02;;;7.38;;
9248;SDS011;4660;41.768;26.198;2022-09-03T12:55:16;9.15;;;7.38;;
9248;SDS011;4660;41.768;26.198;2022-09-03T12:57:51;7.38;;;6.75;;
9248;SDS011;4660;41.768;26.198;2022-09-03T13:00:42;10.63;;;8.05;;
9248;SDS011;4660;41.768;26.198;2022-09-03T13:03:30;8.38;;;7.28;;
9248;SDS011;4660;41.768;26.198;2022-09-03T13:06:14;8.57;;;7.68;;
9248;SDS011;4660;41.768;26.198;2022-09-03T13:08:49;7.22;;;6.35;;
9248;SDS011;4660;41.768;26.198;2022-09-03T13:11:21;8.15;;;7.55;;
9248;SDS011;4660;41.768;26.198;2022-09-03T13:13:53;8.48;;;7.47;;
9248;SDS011;4660;41.768;26.198;2022-09-03T13:16:26;8.52;;;7.65;;
9248;SDS011;4660;41.768;26.198;2022-09-03T13:19:00;7.85;;;7.20;;
9248;SDS011;4660;41.768;26.198;2022-09-03T13:30:11;9.27;;;8.18;;
9248;SDS011;4660;41.768;26.198;2022-09-03T13:48:55;10.52;;;7.82;;
9248;SDS011;4660;41.768;26.198;2022-09-03T13:51:50;7.63;;;6.93;;
9248;SDS011;4660;41.768;26.198;2022-09-03T13:54:29;7.88;;;7.22;;
9248;SDS011;4660;41.768;26.198;2022-09-03T14:02:14;7.82;;;7.03;;
9248;SDS011;4660;41.768;26.198;2022-09-03T14:04:58;7.85;;;7.05;;
9248;SDS011;4660;41.768;26.198;2022-09-03T14:15:25;8.02;;;7.20;;
9248;SDS011;4660;41.768;26.198;2022-09-03T14:18:11;5.32;;;4.90;;
9248;SDS011;4660;41.768;26.198;2022-09-03T14:20:55;5.00;;;4.60;;
9248;SDS011;4660;41.768;26.198;2022-09-03T14:23:30;5.10;;;4.60;;
9248;SDS011;4660;41.768;26.198;2022-09-03T14:26:05;4.97;;;4.25;;
9248;SDS011;4660;41.768;26.198;2022-09-03T14:28:41;4.82;;;4.43;;
9248;SDS011;4660;41.768;26.198;2022-09-03T14:36:36;4.32;;;3.67;;
9248;SDS011;4660;41.768;26.198;2022-09-03T14:41:44;3.83;;;3.53;;
9248;SDS011;4660;41.768;26.198;2022-09-03T15:01:11;3.75;;;3.45;;
9248;SDS011;4660;41.768;26.198;2022-09-03T15:14:38;3.42;;;3.10;;
9248;SDS011;4660;41.768;26.198;2022-09-03T15:20:15;4.47;;;3.00;;
9248;SDS011;4660;41.768;26.198;2022-09-03T15:28:54;4.00;;;2.90;;
9248;SDS011;4660;41.768;26.198;2022-09-03T15:36:37;2.65;;;2.45;;
9248;SDS011;4660;41.768;26.198;2022-09-03T15:39:09;3.83;;;2.47;;
9248;SDS011;4660;41.768;26.198;2022-09-03T15:41:45;2.92;;;2.72;;
9248;SDS011;4660;41.768;26.198;2022-09-03T15:44:18;2.95;;;2.75;;
9248;SDS011;4660;41.768;26.198;2022-09-03T15:47:01;3.90;;;3.05;;
9248;SDS011;4660;41.768;26.198;2022-09-03T15:58:22;3.35;;;2.90;;
9248;SDS011;4660;41.768;26.198;2022-09-03T16:01:00;3.03;;;2.83;;
9248;SDS011;4660;41.768;26.198;2022-09-03T16:06:15;2.90;;;2.70;;
9248;SDS011;4660;41.768;26.198;2022-09-03T16:08:51;2.70;;;2.50;;
9248;SDS011;4660;41.768;26.198;2022-09-03T16:25:43;2.90;;;2.70;;
9248;SDS011;4660;41.768;26.198;2022-09-03T16:31:23;3.25;;;2.95;;
9248;SDS011;4660;41.768;26.198;2022-09-03T16:36:44;3.13;;;2.92;;
9248;SDS011;4660;41.768;26.198;2022-09-03T16:47:58;3.55;;;3.25;;
9248;SDS011;4660;41.768;26.198;2022-09-03T16:53:51;6.45;;;3.65;;
9248;SDS011;4660;41.768;26.198;2022-09-03T17:10:48;3.42;;;2.85;;
9248;SDS011;4660;41.768;26.198;2022-09-03T17:18:34;2.95;;;2.75;;
9248;SDS011;4660;41.768;26.198;2022-09-03T17:28:56;3.83;;;2.83;;
9248;SDS011;4660;41.768;26.198;2022-09-03T17:31:45;3.40;;;3.10;;
9248;SDS011;4660;41.768;26.198;2022-09-03T17:46:04;2.70;;;2.50;;
9248;SDS011;4660;41.768;26.198;2022-09-03T17:48:49;2.92;;;2.55;;
9248;SDS011;4660;41.768;26.198;2022-09-03T17:54:05;2.60;;;2.40;;
9248;SDS011;4660;41.768;26.198;2022-09-03T18:01:36;2.70;;;2.50;;
9248;SDS011;4660;41.768;26.198;2022-09-03T18:04:35;3.13;;;2.83;;
9248;SDS011;4660;41.768;26.198;2022-09-03T18:07:16;6.03;;;5.53;;
9248;SDS011;4660;41.768;26.198;2022-09-03T18:09:47;5.82;;;3.20;;
9248;SDS011;4660;41.768;26.198;2022-09-03T18:12:35;2.85;;;2.65;;
9248;SDS011;4660;41.768;26.198;2022-09-03T18:15:08;5.22;;;2.88;;
9248;SDS011;4660;41.768;26.198;2022-09-03T18:17:58;2.97;;;2.70;;
9248;SDS011;4660;41.768;26.198;2022-09-03T18:20:30;3.03;;;2.83;;
9248;SDS011;4660;41.768;26.198;2022-09-03T18:26:13;4.70;;;3.75;;
9248;SDS011;4660;41.768;26.198;2022-09-03T18:29:08;3.03;;;2.83;;
9248;SDS011;4660;41.768;26.198;2022-09-03T18:31:58;2.92;;;2.72;;
9248;SDS011;4660;41.768;26.198;2022-09-03T18:34:46;3.85;;;3.22;;
9248;SDS011;4660;41.768;26.198;2022-09-03T18:37:30;10.95;;;3.28;;
9248;SDS011;4660;41.768;26.198;2022-09-03T18:40:16;3.35;;;3.05;;
9248;SDS011;4660;41.768;26.198;2022-09-03T18:43:13;3.00;;;2.70;;
9248;SDS011;4660;41.768;26.198;2022-09-03T18:49:18;2.85;;;2.65;;
9248;SDS011;4660;41.768;26.198;2022-09-03T18:52:10;2.90;;;2.60;;
9248;SDS011;4660;41.768;26.198;2022-09-03T19:10:36;4.82;;;2.67;;
9248;SDS011;4660;41.768;26.198;2022-09-03T19:13:45;3.17;;;2.65;;
9248;SDS011;4660;41.768;26.198;2022-09-03T19:16:47;3.13;;;2.92;;
9248;SDS011;4660;41.768;26.198;2022-09-03T19:22:55;3.05;;;2.85;;
9248;SDS011;4660;41.768;26.198;2022-09-03T19:25:40;3.92;;;3.03;;
9248;SDS011;4660;41.768;26.198;2022-09-03T19:28:27;3.42;;;2.80;;
9248;SDS011;4660;41.768;26.198;2022-09-03T19:37:51;3.50;;;3.20;;
9248;SDS011;4660;41.768;26.198;2022-09-03T19:40:54;3.40;;;3.10;;
9248;SDS011;4660;41.768;26.198;2022-09-03T19:47:15;4.18;;;2.72;;
9248;SDS011;4660;41.768;26.198;2022-09-03T19:50:20;2.92;;;2.72;;
9248;SDS011;4660;41.768;26.198;2022-09-03T19:53:09;3.10;;;2.90;;
9248;SDS011;4660;41.768;26.198;2022-09-03T19:55:57;3.42;;;2.55;;
9248;SDS011;4660;41.768;26.198;2022-09-03T19:58:51;3.00;;;2.70;;
9248;SDS011;4660;41.768;26.198;2022-09-03T20:01:38;3.10;;;2.90;;
9248;SDS011;4660;41.768;26.198;2022-09-03T20:04:44;3.13;;;2.80;;
9248;SDS011;4660;41.768;26.198;2022-09-03T20:07:49;4.25;;;2.45;;
9248;SDS011;4660;41.768;26.198;2022-09-03T20:10:37;2.53;;;2.33;;
9248;SDS011;4660;41.768;26.198;2022-09-03T20:20:55;2.95;;;2.58;;
9248;SDS011;4660;41.768;26.198;2022-09-03T20:23:39;2.38;;;2.22;;
9248;SDS011;4660;41.768;26.198;2022-09-03T20:26:36;3.80;;;2.55;;
9248;SDS011;4660;41.768;26.198;2022-09-03T20:34:50;5.40;;;2.50;;
9248;SDS011;4660;41.768;26.198;2022-09-03T20:40:09;2.58;;;2.38;;
9248;SDS011;4660;41.768;26.198;2022-09-03T20:43:04;2.53;;;2.33;;
9248;SDS011;4660;41.768;26.198;2022-09-03T20:48:52;2.63;;;2.42;;
9248;SDS011;4660;41.768;26.198;2022-09-03T20:51:31;2.72;;;2.53;;
9248;SDS011;4660;41.768;26.198;2022-09-03T20:54:19;3.47;;;2.40;;
9248;SDS011;4660;41.768;26.198;2022-09-03T20:56:53;2.45;;;2.15;;
9248;SDS011;4660;41.768;26.198;2022-09-03T21:06:46;2.92;;;2.70;;
9248;SDS011;4660;41.768;26.198;2022-09-03T21:09:23;2.90;;;2.70;;
9248;SDS011;4660;41.768;26.198;2022-09-03T21:12:02;2.60;;;2.40;;
9248;SDS011;4660;41.768;26.198;2022-09-03T21:14:38;3.20;;;2.90;;
9248;SDS011;4660;41.768;26.198;2022-09-03T21:17:13;3.10;;;2.90;;
9248;SDS011;4660;41.768;26.198;2022-09-03T21:25:14;2.63;;;2.42;;
9248;SDS011;4660;41.768;26.198;2022-09-03T21:27:45;2.95;;;2.72;;
9248;SDS011;4660;41.768;26.198;2022-09-03T21:30:16;2.83;;;2.60;;
9248;SDS011;4660;41.768;26.198;2022-09-03T21:33:05;4.43;;;2.83;;
9248;SDS011;4660;41.768;26.198;2022-09-03T21:35:34;3.20;;;2.92;;
9248;SDS011;4660;41.768;26.198;2022-09-03T21:38:12;2.97;;;2.67;;
9248;SDS011;4660;41.768;26.198;2022-09-03T21:43:54;3.55;;;3.25;;
9248;SDS011;4660;41.768;26.198;2022-09-03T21:46:25;3.08;;;2.88;;
9248;SDS011;4660;41.768;26.198;2022-09-03T21:48:55;2.65;;;2.45;;
9248;SDS011;4660;41.768;26.198;2022-09-03T21:51:34;2.85;;;2.60;;
9248;SDS011;4660;41.768;26.198;2022-09-03T22:00:12;3.30;;;3.00;;
9248;SDS011;4660;41.768;26.198;2022-09-03T22:02:43;3.60;;;3.30;;
9248;SDS011;4660;41.768;26.198;2022-09-03T22:05:11;2.90;;;2.70;;
9248;SDS011;4660;41.768;26.198;2022-09-03T22:16:26;2.60;;;2.40;;
9248;SDS011;4660;41.768;26.198;2022-09-03T22:19:52;3.45;;;3.15;;
9248;SDS011;4660;41.768;26.198;2022-09-03T22:22:02;3.40;;;3.10;;
9248;SDS011;4660;41.768;26.198;2022-09-03T22:24:55;3.85;;;3.55;;